Time;durP1;ratioP1;P1;durP2;ratioP2;P2;SDS_P1;SDS_P2;PMS_P1;PMS_P2;Temp;Humidity;BMP_temperature;BMP_pressure;BME280_temperature;BME280_humidity;BME280_pressure;Samples;Min_cycle;Max_cycle;Signal;HPM_P1;HPM_P2
2021/04/10 00:01:10;;;;;;;4.63;2.92;;;;;;;22.80;35.97;95776.03;5028229;28;20494;-71
2021/04/10 00:03:36;;;;;;;4.22;2.60;;;;;;;22.78;35.99;95783.94;5027494;28;20144;-71
2021/04/10 00:06:01;;;;;;;5.07;2.83;;;;;;;22.76;35.88;95776.25;5027722;28;20029;-72
2021/04/10 00:08:27;;;;;;;5.97;3.22;;;;;;;22.74;36.16;95773.28;5027971;28;20045;-72
2021/04/10 00:10:52;;;;;;;4.70;2.72;;;;;;;22.74;36.01;95777.97;5027781;28;20018;-71
2021/04/10 00:13:17;;;;;;;5.07;3.10;;;;;;;22.71;35.86;95773.50;5046271;28;20025;-72
2021/04/10 00:15:43;;;;;;;5.15;3.00;;;;;;;22.69;36.20;95770.50;5034312;28;20498;-71
2021/04/10 00:18:08;;;;;;;5.07;3.13;;;;;;;22.68;36.13;95779.94;5034519;28;20025;-71
2021/04/10 00:20:34;;;;;;;4.80;3.13;;;;;;;22.66;36.19;95761.34;5033874;28;20025;-72
2021/04/10 00:23:00;;;;;;;5.60;3.25;;;;;;;22.64;36.16;95768.50;5034656;28;20021;-71
2021/04/10 00:25:25;;;;;;;4.47;3.03;;;;;;;22.62;36.18;95765.53;5035180;28;20053;-72
2021/04/10 00:27:51;;;;;;;5.18;3.15;;;;;;;22.59;36.33;95755.63;5046751;28;20025;-71
2021/04/10 00:30:16;;;;;;;5.22;3.00;;;;;;;22.63;36.15;95775.19;5054197;28;20021;-72
2021/04/10 00:32:42;;;;;;;5.05;3.05;;;;;;;22.60;36.31;95762.53;5054879;28;20028;-71
2021/04/10 00:35:08;;;;;;;5.68;3.25;;;;;;;22.54;36.10;95756.31;5054827;28;20029;-72
2021/04/10 00:37:35;;;;;;;5.38;3.40;;;;;;;22.60;36.24;95757.09;5054956;28;20024;-72
2021/04/10 00:40:00;;;;;;;5.03;3.20;;;;;;;22.57;36.21;95766.22;5055173;28;20028;-71
2021/04/10 00:42:26;;;;;;;6.68;3.28;;;;;;;22.50;36.21;95747.66;5055398;28;20017;-72
2021/04/10 00:44:51;;;;;;;6.00;3.47;;;;;;;22.54;36.22;95757.06;5053912;28;20968;-72
2021/04/10 00:47:17;;;;;;;5.28;3.13;;;;;;;22.54;36.39;95759.03;5054765;28;20016;-71
2021/04/10 00:49:42;;;;;;;5.63;3.58;;;;;;;22.54;36.28;95764.47;5055053;28;20021;-71
2021/04/10 00:52:08;;;;;;;6.10;3.30;;;;;;;22.52;36.25;95756.06;5054643;28;20078;-71
2021/04/10 00:54:34;;;;;;;5.18;3.35;;;;;;;22.52;36.36;95756.06;5054844;28;20024;-72
2021/04/10 00:56:59;;;;;;;5.75;3.30;;;;;;;22.48;36.39;95755.53;5053663;28;20478;-71
2021/04/10 00:59:25;;;;;;;5.55;3.35;;;;;;;22.50;36.25;95753.81;5070360;28;20021;-71
2021/04/10 01:01:50;;;;;;;5.65;3.40;;;;;;;22.45;36.25;95751.06;5070476;28;20051;-71
2021/04/10 01:04:16;;;;;;;6.20;3.42;;;;;;;22.36;36.16;95734.94;5054702;28;20041;-72
2021/04/10 01:06:41;;;;;;;6.00;3.15;;;;;;;22.45;36.37;95751.06;5055038;28;20025;-71
2021/04/10 01:09:07;;;;;;;6.10;3.28;;;;;;;22.46;36.46;95744.41;5054961;28;20501;-71
2021/04/10 01:11:38;;;;;;;5.65;3.22;;;;;;;22.44;36.34;95755.03;5053249;28;20123;-71
2021/04/10 01:14:22;;;;;;;5.60;3.63;;;;;;;22.42;36.38;95752.78;5054927;28;20036;-71
2021/04/10 01:16:59;;;;;;;7.25;3.60;;;;;;;22.40;36.36;95754.50;5054007;28;20060;-71
2021/04/10 01:20:06;;;;;;;6.40;3.88;;;;;;;22.40;36.52;95759.19;5053638;28;20043;-71
2021/04/10 01:22:50;;;;;;;6.13;3.60;;;;;;;22.40;36.35;95759.19;5027498;28;20048;-71
2021/04/10 01:25:49;;;;;;;6.43;3.47;;;;;;;22.37;36.40;95760.91;5052804;28;20100;-71
2021/04/10 01:28:46;;;;;;;7.82;3.72;;;;;;;22.38;36.35;95756.22;5052302;28;20589;-71
2021/04/10 01:31:12;;;;;;;5.90;3.80;;;;;;;22.36;36.47;95759.44;5054393;28;20497;-71
2021/04/10 01:33:40;;;;;;;6.70;3.90;;;;;;;22.26;36.44;95749.94;5053372;28;20090;-71
2021/04/10 01:36:05;;;;;;;5.88;3.78;;;;;;;22.34;36.43;95763.84;5055458;28;20037;-71
2021/04/10 01:38:31;;;;;;;7.32;3.88;;;;;;;22.24;36.48;95746.97;5055036;28;20071;-71
2021/04/10 01:40:59;;;;;;;6.50;3.88;;;;;;;22.24;36.42;95743.50;5053515;28;20074;-71
2021/04/10 01:43:25;;;;;;;7.82;4.18;;;;;;;22.31;36.39;95765.56;5036554;28;20043;-71
2021/04/10 01:45:51;;;;;;;5.95;3.65;;;;;;;22.29;36.62;95759.88;5050601;28;20028;-70
2021/04/10 01:48:16;;;;;;;6.95;4.18;;;;;;;22.29;36.60;95759.88;5051535;28;20513;-71
2021/04/10 01:50:42;;;;;;;6.38;3.72;;;;;;;22.20;36.94;95746.41;5049936;28;20044;-71
2021/04/10 01:53:08;;;;;;;6.30;4.40;;;;;;;22.18;36.54;95743.44;5049867;28;20033;-71
2021/04/10 01:55:33;;;;;;;6.25;3.95;;;;;;;22.17;36.44;95741.94;5033419;28;20024;-71
2021/04/10 01:57:59;;;;;;;5.55;3.58;;;;;;;22.26;36.46;95749.22;5050035;28;20636;-72
2021/04/10 02:00:26;;;;;;;6.97;3.70;;;;;;;22.24;36.65;95746.97;5051203;28;20032;-71
2021/04/10 02:02:51;;;;;;;6.15;4.30;;;;;;;22.18;36.61;95743.44;5051304;28;20024;-71
2021/04/10 02:05:17;;;;;;;7.00;4.25;;;;;;;22.22;36.58;95749.41;5049628;28;20056;-71
2021/04/10 02:07:43;;;;;;;7.13;3.85;;;;;;;22.10;36.66;95734.22;5049691;28;20025;-71
2021/04/10 02:10:10;;;;;;;6.40;4.05;;;;;;;22.14;36.46;95732.03;5049689;28;20033;-71
2021/04/10 02:12:35;;;;;;;7.00;3.92;;;;;;;22.21;36.52;95747.94;5032931;28;20525;-71
2021/04/10 02:15:01;;;;;;;7.60;4.15;;;;;;;22.20;36.64;95740.97;5066224;28;20103;-71
2021/04/10 02:17:27;;;;;;;7.35;4.13;;;;;;;22.19;36.68;95744.19;5066332;28;20029;-71
2021/04/10 02:19:53;;;;;;;6.20;4.25;;;;;;;22.18;36.58;95738.00;5050602;28;20017;-71
2021/04/10 02:22:20;;;;;;;8.32;4.30;;;;;;;22.06;36.83;95735.66;5066274;28;20494;-71
2021/04/10 02:24:45;;;;;;;6.10;3.97;;;;;;;22.17;36.46;95746.66;5065595;28;20039;-71
2021/04/10 02:27:11;;;;;;;7.30;4.35;;;;;;;22.14;36.71;95742.91;5066052;28;20033;-71
2021/04/10 02:29:36;;;;;;;6.20;3.88;;;;;;;22.06;36.49;95736.44;5050431;28;20036;-71
2021/04/10 02:32:07;;;;;;;6.57;4.10;;;;;;;22.01;36.58;95728.94;5050388;28;20036;-71
2021/04/10 02:34:36;;;;;;;8.10;4.40;;;;;;;22.11;36.47;95749.31;5032733;28;20116;-71
2021/04/10 02:37:02;;;;;;;5.68;4.22;;;;;;;22.14;36.69;95742.16;5047819;28;20094;-72
2021/04/10 02:39:28;;;;;;;7.13;4.18;;;;;;;22.12;36.55;95745.38;5048909;28;20029;-71
2021/04/10 02:41:54;;;;;;;6.68;4.32;;;;;;;22.05;36.31;95734.91;5065671;28;20482;-71
2021/04/10 02:44:24;;;;;;;6.55;4.70;;;;;;;21.96;36.64;95721.50;5032457;28;20040;-71
2021/04/10 02:46:50;;;;;;;6.60;4.47;;;;;;;22.09;36.62;95746.34;5032681;28;20025;-72
2021/04/10 02:49:17;;;;;;;7.90;4.50;;;;;;;22.08;36.62;95744.84;5065605;28;20032;-71
2021/04/10 02:51:49;;;;;;;6.63;4.32;;;;;;;22.08;36.58;95744.09;5048623;28;20103;-72
2021/04/10 02:54:19;;;;;;;8.20;4.78;;;;;;;22.03;36.50;95742.81;5049228;28;20017;-72
2021/04/10 02:56:53;;;;;;;7.18;4.50;;;;;;;22.06;36.67;95747.31;5048757;28;20014;-71
2021/04/10 02:59:19;;;;;;;6.65;4.20;;;;;;;22.05;36.82;95740.38;5032430;28;20040;-71
2021/04/10 03:01:45;;;;;;;6.78;4.25;;;;;;;22.01;36.65;95745.25;5050073;28;20048;-71
2021/04/10 03:04:11;;;;;;;6.53;4.05;;;;;;;22.01;36.60;95739.81;5048293;28;20529;-71
2021/04/10 03:06:36;;;;;;;7.55;4.80;;;;;;;21.95;36.62;95727.41;5048431;28;20029;-71
2021/04/10 03:09:01;;;;;;;8.98;5.22;;;;;;;21.93;36.64;95733.34;5048608;28;20029;-71
2021/04/10 03:11:27;;;;;;;6.60;4.32;;;;;;;22.00;36.70;95746.50;5048677;28;20037;-72
2021/04/10 03:13:52;;;;;;;8.55;4.78;;;;;;;21.98;36.61;95746.22;5048090;28;20025;-71
2021/04/10 03:16:18;;;;;;;7.85;4.40;;;;;;;21.99;36.55;95747.72;5048583;28;20025;-72
2021/04/10 03:18:44;;;;;;;7.30;4.55;;;;;;;21.96;36.59;95748.69;5047979;28;20025;-71
2021/04/10 03:21:10;;;;;;;7.70;4.50;;;;;;;21.96;36.67;95751.41;5048315;28;20098;-71
2021/04/10 03:23:35;;;;;;;8.10;4.25;;;;;;;21.93;36.62;95754.34;5047981;28;20104;-71
2021/04/10 03:26:01;;;;;;;6.53;4.05;;;;;;;21.95;36.60;95755.34;5049432;28;20620;-71
2021/04/10 03:28:28;;;;;;;8.02;5.13;;;;;;;21.95;36.69;95763.50;5048165;28;20032;-71
2021/04/10 03:30:53;;;;;;;6.15;4.40;;;;;;;21.98;36.59;95759.81;5048044;28;20028;-71
2021/04/10 03:33:19;;;;;;;7.30;4.68;;;;;;;21.92;36.56;95769.91;5064099;28;20029;-72
2021/04/10 03:35:44;;;;;;;8.45;4.57;;;;;;;21.92;36.65;95761.75;5035222;28;20037;-71
2021/04/10 03:38:10;;;;;;;8.23;5.00;;;;;;;21.94;36.68;95759.31;4991709;28;20026;-71
2021/04/10 03:40:35;;;;;;;7.50;4.65;;;;;;;21.86;36.73;95759.47;5009219;28;20033;-71
2021/04/10 03:43:00;;;;;;;7.10;4.60;;;;;;;22.00;36.66;95760.13;4991836;28;20037;-72
2021/04/10 03:45:26;;;;;;;6.18;4.00;;;;;;;22.14;36.38;95770.09;5008925;28;20034;-71
2021/04/10 03:47:53;;;;;;;6.85;4.32;;;;;;;22.23;36.39;95778.13;5008874;28;20037;-71
2021/04/10 03:50:21;;;;;;;7.63;4.45;;;;;;;22.29;36.40;95770.00;5024548;28;20166;-72
2021/04/10 03:52:47;;;;;;;6.95;4.43;;;;;;;22.34;36.34;95770.03;5048847;28;20115;-71
2021/04/10 03:55:12;;;;;;;7.90;4.60;;;;;;;22.38;36.41;95767.84;5048698;28;20394;-72
2021/04/10 03:57:38;;;;;;;7.07;4.40;;;;;;;22.42;36.31;95773.81;5048991;28;20532;-72
2021/04/10 04:00:04;;;;;;;7.40;4.38;;;;;;;22.46;36.11;95777.06;5048964;28;20029;-73
2021/04/10 04:02:30;;;;;;;8.25;4.50;;;;;;;22.41;36.14;95760.69;5048763;28;20021;-74
2021/04/10 04:04:55;;;;;;;8.23;5.15;;;;;;;22.49;35.53;95774.09;5047494;28;20049;-74
2021/04/10 04:07:21;;;;;;;6.65;4.07;;;;;;;22.54;35.70;95764.47;5046959;28;20035;-73
2021/04/10 04:09:46;;;;;;;7.25;4.30;;;;;;;22.51;35.99;95765.44;5048662;28;20033;-73
2021/04/10 04:12:12;;;;;;;6.22;4.53;;;;;;;22.60;35.80;95778.88;5063984;28;20514;-72
2021/04/10 04:14:37;;;;;;;6.95;3.95;;;;;;;22.63;35.68;95775.94;5048427;28;20021;-73
2021/04/10 04:17:05;;;;;;;6.78;4.53;;;;;;;22.60;35.75;95770.69;5047350;28;20035;-71
2021/04/10 04:19:31;;;;;;;14.52;4.65;;;;;;;22.61;35.77;95764.78;5048511;28;20031;-72
2021/04/10 04:21:57;;;;;;;7.82;4.82;;;;;;;22.63;35.57;95756.13;5048309;28;20025;-75
2021/04/10 04:24:22;;;;;;;6.53;4.30;;;;;;;22.75;35.68;95774.00;5048536;28;20421;-74
2021/04/10 04:26:48;;;;;;;7.22;4.85;;;;;;;22.81;35.48;95782.97;5048794;28;20502;-74
2021/04/10 04:29:13;;;;;;;6.65;3.97;;;;;;;22.80;35.44;95770.59;5048097;28;20465;-74
2021/04/10 04:31:39;;;;;;;7.45;4.88;;;;;;;22.80;35.53;95773.31;5048543;28;20879;-75
2021/04/10 04:34:04;;;;;;;7.30;4.40;;;;;;;22.82;35.45;95773.56;5048125;28;20036;-75
2021/04/10 04:36:30;;;;;;;8.90;4.70;;;;;;;22.88;35.16;95777.06;5048297;28;20422;-74
2021/04/10 04:38:55;;;;;;;6.90;4.25;;;;;;;22.75;35.29;95758.44;5048099;28;20021;-74
2021/04/10 04:41:21;;;;;;;24.33;8.93;;;;;;;22.18;24.63;95775.31;5048310;28;20139;-73
2021/04/10 04:43:47;;;;;;;16.92;6.95;;;;;;;22.00;30.68;95781.88;5047254;28;20094;-74
2021/04/10 04:46:12;;;;;;;23.48;6.30;;;;;;;22.27;33.11;95784.09;5048114;28;20482;-74
2021/04/10 04:48:38;;;;;;;13.88;5.70;;;;;;;22.41;34.18;95777.78;5047784;28;20029;-73
2021/04/10 04:51:04;;;;;;;9.65;6.03;;;;;;;22.53;34.33;95779.34;5048118;28;20029;-73
2021/04/10 04:53:29;;;;;;;10.13;5.18;;;;;;;22.60;34.49;95776.91;5047740;28;20071;-72
2021/04/10 04:55:55;;;;;;;15.32;5.28;;;;;;;22.66;34.66;95787.81;5047943;28;20021;-73
2021/04/10 04:58:21;;;;;;;13.20;5.88;;;;;;;22.72;34.59;95777.72;5048407;28;20028;-73
2021/04/10 05:00:46;;;;;;;9.02;4.55;;;;;;;22.74;34.79;95772.53;5050783;28;20067;-73
2021/04/10 05:03:11;;;;;;;8.70;4.97;;;;;;;22.77;34.61;95782.47;5051464;28;20021;-73
2021/04/10 05:05:37;;;;;;;9.63;5.10;;;;;;;22.73;34.62;95768.31;5051654;28;20025;-73
2021/04/10 05:08:02;;;;;;;8.88;5.03;;;;;;;22.81;34.57;95788.41;5051705;28;20024;-73
2021/04/10 05:10:28;;;;;;;9.93;4.75;;;;;;;22.85;34.75;95775.31;5051573;28;20021;-71
2021/04/10 05:12:54;;;;;;;8.88;5.30;;;;;;;22.88;34.84;95782.50;5051839;28;20028;-71
2021/04/10 05:15:19;;;;;;;7.88;4.80;;;;;;;22.89;34.83;95785.50;5051881;28;20021;-71
2021/04/10 05:17:44;;;;;;;9.10;5.03;;;;;;;22.90;34.40;95784.25;5051718;28;20075;-71
2021/04/10 05:20:10;;;;;;;9.90;4.78;;;;;;;22.92;34.42;95784.50;5051526;28;20031;-71
2021/04/10 05:22:36;;;;;;;9.50;5.38;;;;;;;22.88;34.75;95782.50;5051747;28;20562;-72
2021/04/10 05:25:02;;;;;;;9.57;5.15;;;;;;;22.93;34.34;95788.75;5049969;28;20025;-72
2021/04/10 05:27:27;;;;;;;9.85;4.80;;;;;;;22.97;34.47;95792.00;5051712;28;20033;-73
2021/04/10 05:29:53;;;;;;;9.57;4.80;;;;;;;22.97;34.46;95786.56;5051333;28;20426;-73
2021/04/10 05:32:18;;;;;;;8.98;5.00;;;;;;;22.98;34.44;95785.31;5051105;28;20028;-73
2021/04/10 05:34:43;;;;;;;7.32;4.45;;;;;;;22.98;34.54;95782.59;5051530;28;20021;-73
2021/04/10 05:37:09;;;;;;;8.07;5.05;;;;;;;23.05;34.62;95793.03;5051527;28;20021;-73
2021/04/10 05:39:34;;;;;;;7.57;4.75;;;;;;;23.05;34.46;95798.50;5028291;28;20061;-74
2021/04/10 05:42:00;;;;;;;9.20;5.07;;;;;;;23.06;34.74;95794.53;5015719;28;20537;-73
2021/04/10 05:44:25;;;;;;;8.02;5.20;;;;;;;23.11;34.73;95802.00;5050992;28;20029;-73
2021/04/10 05:46:51;;;;;;;8.88;5.45;;;;;;;23.13;35.22;95804.97;5051142;28;20504;-74
2021/04/10 05:49:16;;;;;;;8.52;5.18;;;;;;;23.14;34.35;95801.00;5051284;28;20516;-73
2021/04/10 05:51:42;;;;;;;8.25;4.65;;;;;;;23.16;34.77;95803.97;5050950;28;20028;-72
2021/04/10 05:54:08;;;;;;;10.32;5.20;;;;;;;23.18;34.05;95801.50;5051140;28;20025;-72
2021/04/10 05:56:34;;;;;;;7.45;4.63;;;;;;;23.19;34.43;95786.66;5040369;28;20021;-73
2021/04/10 05:59:00;;;;;;;7.93;4.55;;;;;;;23.20;34.33;95796.31;5030865;28;20029;-75
2021/04/10 06:01:27;;;;;;;6.95;4.60;;;;;;;23.21;34.59;95795.06;5030389;28;20025;-72
2021/04/10 06:03:54;;;;;;;9.82;4.70;;;;;;;23.23;35.04;95781.72;5031048;28;20099;-75
2021/04/10 06:06:20;;;;;;;10.35;6.55;;;;;;;23.18;32.45;95790.59;5030306;28;20422;-71
2021/04/10 06:08:45;;;;;;;8.05;4.68;;;;;;;23.17;33.58;95780.97;5030961;28;20029;-71
2021/04/10 06:11:11;;;;;;;7.68;4.68;;;;;;;23.10;35.17;95767.78;5033637;28;20021;-71
2021/04/10 06:13:36;;;;;;;8.95;5.18;;;;;;;23.25;35.22;95794.88;5032106;28;20041;-70
2021/04/10 06:16:05;;;;;;;8.68;4.50;;;;;;;23.27;35.15;95793.13;5032394;28;20030;-71
2021/04/10 06:18:30;;;;;;;7.50;4.28;;;;;;;23.30;35.00;95786.69;5032601;28;20084;-75
2021/04/10 06:20:56;;;;;;;7.35;4.53;;;;;;;23.35;34.89;95791.44;5031802;28;20041;-73
2021/04/10 06:23:21;;;;;;;6.82;4.28;;;;;;;23.33;34.85;95779.53;5019163;28;20549;-71
2021/04/10 06:25:47;;;;;;;7.22;4.88;;;;;;;23.45;35.01;95787.25;5037044;28;20041;-75
2021/04/10 06:28:12;;;;;;;8.02;4.68;;;;;;;23.45;34.88;95781.78;5031614;28;20029;-72
2021/04/10 06:30:38;;;;;;;7.78;5.00;;;;;;;23.42;34.85;95766.41;5033524;28;20033;-72
2021/04/10 06:33:03;;;;;;;7.20;4.78;;;;;;;23.66;35.16;95796.75;5032697;28;20025;-76
2021/04/10 06:35:29;;;;;;;6.82;4.45;;;;;;;23.75;35.13;95804.72;5033687;28;20509;-76
2021/04/10 06:37:54;;;;;;;8.45;4.63;;;;;;;23.84;34.63;95796.31;5034983;28;20410;-74
2021/04/10 06:40:20;;;;;;;6.45;4.35;;;;;;;23.94;34.29;95804.50;5033610;28;20501;-73
2021/04/10 06:42:45;;;;;;;7.03;4.05;;;;;;;24.01;34.55;95801.28;5027976;28;20018;-74
2021/04/10 06:45:11;;;;;;;7.20;4.65;;;;;;;24.12;33.79;95795.84;5030323;28;20026;-70
2021/04/10 06:47:36;;;;;;;6.97;4.18;;;;;;;24.23;34.20;95795.88;5031339;28;20489;-74
2021/04/10 06:50:04;;;;;;;7.05;4.28;;;;;;;24.34;33.95;95798.63;5030749;28;20025;-73
2021/04/10 06:52:30;;;;;;;6.85;4.47;;;;;;;24.41;34.00;95784.47;5031613;28;20029;-74
2021/04/10 06:55:07;;;;;;;8.45;4.95;;;;;;;24.50;33.36;95798.63;5029490;28;20055;-75
2021/04/10 06:57:35;;;;;;;13.38;4.30;;;;;;;24.50;33.20;95781.50;5029412;28;20028;-71
2021/04/10 07:00:04;;;;;;;7.15;4.47;;;;;;;24.69;33.18;95787.91;5026824;28;20026;-71
2021/04/10 07:02:30;;;;;;;6.45;4.32;;;;;;;24.77;32.99;95788.88;5031042;28;20024;-71
2021/04/10 07:04:56;;;;;;;8.00;4.03;;;;;;;24.86;32.87;95790.13;5029956;28;20037;-72
2021/04/10 07:07:23;;;;;;;6.25;4.30;;;;;;;24.97;32.56;95781.88;5032001;28;20025;-72
2021/04/10 07:09:48;;;;;;;6.75;4.25;;;;;;;25.05;32.79;95777.44;5030291;28;20025;-70
2021/04/10 07:12:14;;;;;;;6.50;4.40;;;;;;;25.12;32.57;95774.16;5026647;28;20163;-70
2021/04/10 07:14:40;;;;;;;6.88;4.18;;;;;;;25.18;32.74;95785.81;5033449;28;20845;-71
2021/04/10 07:17:05;;;;;;;8.73;4.70;;;;;;;25.01;27.30;95771.47;5034357;28;20040;-73
2021/04/10 07:19:30;;;;;;;8.18;4.43;;;;;;;25.16;29.56;95771.91;5028579;28;20551;-71
2021/04/10 07:22:07;;;;;;;7.05;4.30;;;;;;;25.24;32.06;95778.34;5026495;28;20048;-70
2021/04/10 07:24:44;;;;;;;7.00;4.25;;;;;;;25.30;31.47;95781.81;5058595;28;20039;-71
2021/04/10 07:27:14;;;;;;;6.85;4.05;;;;;;;25.32;31.86;95779.31;5050661;28;20035;-72
2021/04/10 07:29:41;;;;;;;6.93;4.25;;;;;;;25.31;32.07;95777.84;5044614;28;20051;-70
2021/04/10 07:32:36;;;;;;;10.98;4.10;;;;;;;25.38;32.09;95782.75;5031366;28;20438;-71
2021/04/10 07:35:09;;;;;;;7.22;4.00;;;;;;;25.38;32.15;95788.22;5048363;28;20017;-71
2021/04/10 07:37:34;;;;;;;6.50;4.20;;;;;;;25.42;31.74;95783.25;5030499;28;20036;-71
2021/04/10 07:40:01;;;;;;;8.23;4.88;;;;;;;25.46;32.08;95778.25;5029072;28;20041;-73
2021/04/10 07:42:27;;;;;;;5.97;3.92;;;;;;;25.45;31.94;95779.50;5030576;28;20025;-71
2021/04/10 07:44:52;;;;;;;6.32;4.30;;;;;;;25.41;32.13;95765.34;5046198;28;20028;-71
2021/04/10 07:47:18;;;;;;;6.63;4.10;;;;;;;25.49;32.07;95771.78;5025456;28;20034;-71
2021/04/10 07:49:43;;;;;;;6.30;3.95;;;;;;;25.53;31.65;95774.97;5031403;28;20056;-71
2021/04/10 07:52:09;;;;;;;8.20;4.45;;;;;;;25.56;31.62;95772.00;5031724;28;20394;-70
2021/04/10 07:54:43;;;;;;;8.23;4.05;;;;;;;25.62;31.98;95774.69;5014272;28;20018;-71
2021/04/10 07:57:12;;;;;;;7.60;4.43;;;;;;;25.62;31.86;95767.25;5029608;28;20026;-72
2021/04/10 07:59:49;;;;;;;7.13;4.47;;;;;;;25.64;31.71;95767.50;5029746;28;20033;-70
2021/04/10 08:02:15;;;;;;;6.70;4.28;;;;;;;25.67;31.50;95771.22;5030753;28;20120;-71
2021/04/10 08:05:03;;;;;;;8.40;4.10;;;;;;;25.62;31.37;95764.50;5030081;28;20136;-72
2021/04/10 08:07:31;;;;;;;6.53;4.13;;;;;;;25.75;31.52;95755.75;5027806;28;20025;-70
2021/04/10 08:10:08;;;;;;;6.13;3.88;;;;;;;25.75;31.67;95766.69;5028759;28;20022;-71
2021/04/10 08:12:37;;;;;;;7.30;4.15;;;;;;;25.80;31.29;95764.66;5030884;28;20482;-71
2021/04/10 08:15:10;;;;;;;6.18;3.70;;;;;;;25.75;31.57;95766.69;5011563;28;20030;-71
2021/04/10 08:17:40;;;;;;;6.05;3.80;;;;;;;25.79;31.33;95767.91;5030801;28;20056;-71
2021/04/10 08:20:23;;;;;;;5.57;4.07;;;;;;;25.80;31.14;95753.72;5030573;28;20018;-72
2021/04/10 08:22:48;;;;;;;6.93;4.32;;;;;;;25.85;31.60;95755.66;5014658;28;20105;-72
2021/04/10 08:25:28;;;;;;;7.18;4.38;;;;;;;25.69;31.43;95735.88;5013524;28;20482;-71
2021/04/10 08:27:54;;;;;;;6.63;3.90;;;;;;;25.81;31.36;95755.22;5038710;28;20465;-72
2021/04/10 08:30:20;;;;;;;6.13;4.07;;;;;;;25.79;31.13;95752.22;5016870;28;20049;-71
2021/04/10 08:32:45;;;;;;;7.65;4.03;;;;;;;25.82;31.33;95734.78;5028525;28;20513;-74
2021/04/10 08:35:11;;;;;;;6.13;3.78;;;;;;;25.91;31.22;95752.91;5025775;28;20025;-71
2021/04/10 08:37:36;;;;;;;7.38;4.40;;;;;;;25.87;31.48;95742.25;5044667;28;20052;-76
2021/04/10 08:40:02;;;;;;;7.47;4.40;;;;;;;25.86;31.55;95740.75;5012994;28;20030;-76
2021/04/10 08:42:28;;;;;;;6.55;3.85;;;;;;;25.92;31.36;95735.25;5017142;28;20640;-73
2021/04/10 08:44:55;;;;;;;5.20;3.42;;;;;;;25.82;31.06;95718.38;5033953;28;20025;-75
2021/04/10 08:47:20;;;;;;;6.97;4.68;;;;;;;25.80;31.38;95714.69;5030756;28;20055;-73
2021/04/10 08:54:59;;;;;;;9.80;4.22;;;;;;;25.96;31.03;95727.47;5494952;22;20054;-73
2021/04/10 08:57:39;;;;;;;8.48;4.50;;;;;;;25.61;29.57;95702.09;4976087;28;20391;-80
2021/04/10 09:00:16;;;;;;;8.10;4.57;;;;;;;25.62;28.75;95719.97;4985507;28;20025;-74
2021/04/10 09:02:55;;;;;;;7.38;5.00;;;;;;;25.56;27.94;95716.53;5009098;28;20058;-75
2021/04/10 09:05:21;;;;;;;6.40;4.68;;;;;;;25.52;27.24;95710.59;5007403;28;20467;-75
2021/04/10 09:07:49;;;;;;;8.55;5.13;;;;;;;25.54;26.94;95708.09;5024233;28;20026;-74
2021/04/10 09:10:24;;;;;;;7.50;4.43;;;;;;;25.44;27.34;95698.69;5022815;28;20034;-79
2021/04/10 09:12:49;;;;;;;7.28;4.55;;;;;;;25.49;26.39;95703.41;5014096;28;20470;-74
2021/04/10 09:15:15;;;;;;;7.03;4.20;;;;;;;25.41;26.48;95699.72;4982491;28;20120;-78
2021/04/10 09:17:56;;;;;;;7.53;4.90;;;;;;;25.32;25.98;95686.38;5018210;28;20034;-82
2021/04/10 09:20:48;;;;;;;7.75;4.40;;;;;;;25.28;26.55;95691.34;5001968;28;20478;-81
2021/04/10 09:23:30;;;;;;;8.00;4.80;;;;;;;25.17;26.09;95680.47;5015750;28;20049;-76
2021/04/10 09:26:08;;;;;;;7.68;4.47;;;;;;;25.40;25.65;95687.31;4976028;28;20118;-75
2021/04/10 09:28:34;;;;;;;8.40;4.40;;;;;;;25.17;25.45;95653.16;4996742;28;20036;-76
2021/04/10 09:31:00;;;;;;;7.43;4.70;;;;;;;25.33;25.34;95683.13;4982032;28;20029;-76
2021/04/10 09:33:28;;;;;;;6.85;4.38;;;;;;;25.25;26.02;95675.97;4976494;28;20076;-75
2021/04/10 09:35:54;;;;;;;6.72;4.25;;;;;;;25.25;27.08;95672.50;5015286;28;20564;-76
2021/04/10 09:38:44;;;;;;;6.57;4.35;;;;;;;25.23;24.87;95672.22;5019549;28;20057;-75
2021/04/10 09:41:11;;;;;;;8.30;4.20;;;;;;;25.28;24.86;95653.06;5016404;28;20030;-75
2021/04/10 09:43:36;;;;;;;6.72;3.67;;;;;;;25.25;24.91;95659.56;5008923;28;20581;-75
2021/04/10 09:46:03;;;;;;;9.25;4.10;;;;;;;25.33;24.26;95658.50;4971867;28;20054;-75
2021/04/10 09:48:30;;;;;;;7.85;4.20;;;;;;;25.14;24.63;95643.22;4987972;28;20053;-76
2021/04/10 09:50:56;;;;;;;7.18;4.30;;;;;;;25.27;24.29;95662.50;4998618;28;20105;-76
2021/04/10 09:53:24;;;;;;;7.13;3.42;;;;;;;25.29;24.83;95654.56;5013372;28;20108;-75
2021/04/10 09:56:00;;;;;;;7.18;4.07;;;;;;;25.31;24.77;95646.59;5006526;28;20049;-75
2021/04/10 09:58:32;;;;;;;7.32;3.88;;;;;;;25.22;25.05;95644.16;5006244;28;20416;-76
2021/04/10 10:01:02;;;;;;;7.80;4.40;;;;;;;25.21;25.38;95639.94;5001629;28;20538;-77
2021/04/10 10:03:28;;;;;;;5.72;3.97;;;;;;;25.28;25.57;95627.72;5017551;28;20025;-74
2021/04/10 10:05:53;;;;;;;9.50;3.83;;;;;;;25.34;25.20;95634.63;5019641;28;20028;-75
2021/04/10 10:08:23;;;;;;;5.45;3.58;;;;;;;25.41;25.39;95623.91;5019881;28;20485;-75
2021/04/10 10:10:52;;;;;;;8.07;3.80;;;;;;;25.41;25.26;95634.06;4995346;28;20037;-75
2021/04/10 10:13:19;;;;;;;7.57;3.50;;;;;;;25.46;25.05;95620.38;5013738;28;20477;-75
2021/04/10 10:15:45;;;;;;;5.90;3.28;;;;;;;25.52;24.65;95623.09;4999719;28;20037;-75
2021/04/10 10:18:14;;;;;;;6.20;3.88;;;;;;;25.73;24.52;95621.47;4986909;28;20026;-73
2021/04/10 10:20:50;;;;;;;5.78;3.65;;;;;;;25.51;23.26;95621.59;5011406;28;20038;-74
2021/04/10 10:23:16;;;;;;;6.55;3.90;;;;;;;25.22;22.10;95616.81;5010188;28;20155;-76
2021/04/10 10:25:41;;;;;;;7.45;3.90;;;;;;;25.07;21.55;95610.94;4992652;28;20026;-74
2021/04/10 10:28:07;;;;;;;5.45;3.30;;;;;;;24.85;20.83;95599.38;4990895;28;20022;-72
2021/04/10 10:30:35;;;;;;;5.78;3.67;;;;;;;24.80;21.25;95591.19;4993009;28;20075;-75
2021/04/10 10:33:01;;;;;;;9.57;4.15;;;;;;;24.89;20.99;95600.59;5016873;28;20105;-72
2021/04/10 10:35:27;;;;;;;7.22;3.72;;;;;;;24.89;20.53;95606.06;5019933;28;20101;-76
2021/04/10 10:37:52;;;;;;;7.55;4.03;;;;;;;24.65;20.70;95590.75;5024593;28;20013;-76
2021/04/10 10:40:28;;;;;;;7.45;4.15;;;;;;;24.77;20.52;95592.19;4995697;28;20029;-79
2021/04/10 10:43:09;;;;;;;7.72;3.80;;;;;;;24.91;20.41;95598.06;4977807;28;20026;-77
2021/04/10 10:45:41;;;;;;;5.90;3.75;;;;;;;24.99;19.83;95582.69;5009892;28;20478;-74
2021/04/10 10:48:16;;;;;;;5.00;3.40;;;;;;;25.31;19.56;95591.19;4997607;28;20557;-72
2021/04/10 10:50:41;;;;;;;5.68;3.53;;;;;;;25.26;19.56;95584.50;5013219;28;20037;-74
2021/04/10 10:53:14;;;;;;;6.43;4.03;;;;;;;25.12;19.58;95574.63;4998272;28;20514;-72
2021/04/10 10:56:07;;;;;;;7.40;3.80;;;;;;;25.07;19.00;95572.69;5015381;28;20045;-72
2021/04/10 10:58:36;;;;;;;6.10;3.45;;;;;;;25.33;19.22;95567.53;4997808;28;20079;-74
2021/04/10 11:01:03;;;;;;;5.93;3.70;;;;;;;25.15;18.87;95568.16;5001324;28;20117;-77
2021/04/10 11:03:28;;;;;;;5.57;3.50;;;;;;;25.66;18.94;95562.53;4983973;28;20045;-75
2021/04/10 11:05:54;;;;;;;8.02;3.72;;;;;;;25.63;18.08;95535.44;5008545;28;20501;-74
2021/04/10 11:08:20;;;;;;;7.32;4.15;;;;;;;25.57;17.78;95548.44;4992488;28;20037;-76
2021/04/10 11:10:46;;;;;;;8.40;3.80;;;;;;;25.47;18.02;95552.75;4992429;28;20037;-78
2021/04/10 11:13:13;;;;;;;5.97;3.72;;;;;;;25.05;18.56;95553.31;5003688;28;20032;-79
2021/04/10 11:15:38;;;;;;;4.72;3.30;;;;;;;24.91;17.95;95543.44;5009697;28;20109;-76
2021/04/10 11:18:04;;;;;;;5.00;3.35;;;;;;;25.32;18.62;95544.91;5003978;28;20108;-77
2021/04/10 11:20:33;;;;;;;6.47;3.40;;;;;;;25.17;18.90;95538.34;5016552;28;20055;-73
2021/04/10 11:23:06;;;;;;;6.05;3.53;;;;;;;25.10;18.92;95527.94;5017746;28;20503;-72
2021/04/10 11:25:48;;;;;;;5.68;3.47;;;;;;;25.03;18.65;95528.47;5006174;28;20167;-74
2021/04/10 11:28:33;;;;;;;5.97;3.90;;;;;;;24.90;18.58;95519.34;5015239;28;20032;-73
2021/04/10 11:31:05;;;;;;;6.60;3.80;;;;;;;24.88;18.31;95528.06;5022464;28;20033;-73
2021/04/10 11:33:34;;;;;;;7.03;3.78;;;;;;;24.75;18.46;95499.09;5014371;28;20025;-74
2021/04/10 11:36:00;;;;;;;6.23;4.00;;;;;;;24.92;18.23;95530.53;4992741;28;20540;-72
2021/04/10 11:38:25;;;;;;;6.97;3.75;;;;;;;24.80;18.10;95503.78;5020574;28;20017;-73
2021/04/10 11:40:51;;;;;;;5.00;3.20;;;;;;;24.80;18.39;95515.47;4992411;28;20013;-74
2021/04/10 11:43:16;;;;;;;7.72;3.80;;;;;;;24.99;18.29;95516.34;5009976;28;20027;-72